createdAt,value
2023-02-06T00:02:55.164Z,104305.31
2023-02-06T00:07:57.187Z,104298.44
2023-02-06T00:12:58.966Z,104283.53
2023-02-06T00:18:00.625Z,104293.63
2023-02-06T00:23:02.224Z,104300.28
2023-02-06T00:28:04.340Z,104286.81
2023-02-06T00:33:06.010Z,104286.59
2023-02-06T00:38:12.305Z,104276.50
2023-02-06T00:43:14.132Z,104285.78
2023-02-06T00:48:16.669Z,104287.56
2023-02-06T00:53:18.746Z,104286.44
2023-02-06T00:58:20.333Z,104267.41
2023-02-06T01:03:22.084Z,104261.09
2023-02-06T01:08:23.740Z,104263.91
2023-02-06T01:13:26.139Z,104259.19
2023-02-06T01:18:27.801Z,104270.22
2023-02-06T01:23:29.412Z,104277.63
2023-02-06T01:28:31.045Z,104280.47
2023-02-06T01:33:33.549Z,104276.00
2023-02-06T01:38:35.199Z,104276.97
2023-02-06T01:43:39.949Z,104274.22
2023-02-06T01:48:51.061Z,104271.56
2023-02-06T01:53:58.771Z,104256.81
2023-02-06T01:59:03.020Z,104256.09
2023-02-06T02:04:08.485Z,104255.19
2023-02-06T02:09:10.277Z,104255.66
2023-02-06T02:14:15.419Z,104247.38
2023-02-06T02:19:41.950Z,104235.66
2023-02-06T02:25:08.824Z,104229.38
2023-02-06T02:30:35.107Z,104232.19
2023-02-06T02:36:00.743Z,104229.13
2023-02-06T02:41:30.942Z,104225.09
2023-02-06T02:46:42.762Z,104231.59
2023-02-06T02:51:46.264Z,104227.00
2023-02-06T02:56:48.157Z,104241.88
2023-02-06T03:02:01.298Z,104237.44
2023-02-06T03:07:33.582Z,104240.19
2023-02-06T03:12:46.312Z,104240.03
2023-02-06T03:17:56.160Z,104244.31
2023-02-06T03:23:01.860Z,104227.09
2023-02-06T03:28:10.837Z,104234.41
2023-02-06T03:33:18.713Z,104236.13
2023-02-06T03:38:20.717Z,104220.78
2023-02-06T03:43:25.012Z,104222.84
2023-02-06T03:48:34.759Z,104221.09
2023-02-06T03:53:38.811Z,104212.66
2023-02-06T03:58:40.573Z,104216.38
2023-02-06T04:03:42.247Z,104226.34
2023-02-06T04:08:43.938Z,104232.56
2023-02-06T04:13:45.604Z,104251.25
2023-02-06T04:18:47.184Z,104259.16
2023-02-06T04:23:48.892Z,104257.81
2023-02-06T04:28:50.546Z,104248.22
2023-02-06T04:33:52.153Z,104252.47
2023-02-06T04:38:53.805Z,104253.97
2023-02-06T04:43:55.525Z,104242.13
2023-02-06T04:48:57.163Z,104244.13
2023-02-06T04:53:58.844Z,104251.38
2023-02-06T04:59:00.487Z,104251.34
2023-02-06T05:04:02.125Z,104248.09
2023-02-06T05:09:06.667Z,104241.00
2023-02-06T05:14:08.280Z,104244.53
2023-02-06T05:19:11.626Z,104243.44
2023-02-06T05:24:13.271Z,104245.91
2023-02-06T05:29:15.002Z,104237.22
2023-02-06T05:34:16.670Z,104255.78
2023-02-06T05:39:18.424Z,104261.09
2023-02-06T05:44:20.154Z,104243.03
2023-02-06T05:49:21.872Z,104232.78
2023-02-06T05:54:23.563Z,104241.75
2023-02-06T05:59:25.471Z,104248.09
2023-02-06T06:04:27.167Z,104229.75
2023-02-06T06:09:28.890Z,104237.75
2023-02-06T06:14:30.554Z,104243.38
2023-02-06T06:19:32.234Z,104229.63
2023-02-06T06:24:34.184Z,104233.47
2023-02-06T06:29:35.879Z,104235.25
2023-02-06T06:34:37.554Z,104227.84
2023-02-06T06:39:39.181Z,104229.75
2023-02-06T06:44:40.816Z,104231.56
2023-02-06T06:49:42.513Z,104228.00
2023-02-06T06:54:44.561Z,104222.66
2023-02-06T06:59:46.174Z,104225.19
2023-02-06T07:04:47.927Z,104237.97
2023-02-06T07:09:49.589Z,104225.69
2023-02-06T07:14:51.304Z,104225.19
2023-02-06T07:19:52.977Z,104215.56
2023-02-06T07:24:54.648Z,104213.56
2023-02-06T07:29:56.287Z,104202.75
2023-02-06T07:34:58.045Z,104211.03
2023-02-06T07:39:59.734Z,104203.63
2023-02-06T07:45:01.397Z,104190.13
2023-02-06T07:50:04.388Z,104193.72
2023-02-06T07:55:06.473Z,104175.09
2023-02-06T08:00:09.404Z,104160.44
2023-02-06T08:05:13.935Z,104148.38
2023-02-06T08:10:15.810Z,104137.44
2023-02-06T08:15:17.608Z,104123.63
2023-02-06T08:20:19.337Z,104129.22
2023-02-06T08:25:21.169Z,104128.94
2023-02-06T08:30:23.172Z,104126.78
2023-02-06T08:35:24.884Z,104145.00
2023-02-06T08:40:27.692Z,104141.44
2023-02-06T08:45:29.357Z,104142.16
2023-02-06T08:50:31.031Z,104122.19
2023-02-06T08:55:32.740Z,104126.44
2023-02-06T09:00:34.464Z,104126.66
2023-02-06T09:05:36.349Z,104119.88
2023-02-06T09:10:38.222Z,104128.41
2023-02-06T09:15:40.325Z,104112.19
2023-02-06T09:20:42.092Z,104106.56
2023-02-06T09:25:45.191Z,104109.66
2023-02-06T09:30:47.270Z,104108.47
2023-02-06T09:35:49.047Z,104106.94
2023-02-06T09:40:51.723Z,104113.03
2023-02-06T09:46:00.252Z,104105.50
2023-02-06T09:51:25.177Z,104113.53
2023-02-06T09:56:37.191Z,104118.31
2023-02-06T10:01:47.200Z,104121.19
2023-02-06T10:07:03.998Z,104123.84
2023-02-06T10:12:15.777Z,104131.38
2023-02-06T10:17:30.507Z,104125.63
2023-02-06T10:22:59.275Z,104135.22
2023-02-06T10:28:21.612Z,104137.28
2023-02-06T10:33:59.463Z,104137.91
2023-02-06T10:39:20.877Z,104135.56
2023-02-06T10:44:32.941Z,104138.88
2023-02-06T10:49:46.477Z,104134.97
2023-02-06T10:54:53.381Z,104147.59
2023-02-06T11:00:00.095Z,104140.31
2023-02-06T11:05:22.473Z,104142.78
2023-02-06T11:10:26.016Z,104138.38
2023-02-06T11:15:32.830Z,104142.31
2023-02-06T11:20:37.078Z,104141.84
2023-02-06T11:25:39.515Z,104126.06
2023-02-06T11:30:53.439Z,104122.44
2023-02-06T11:36:01.377Z,104128.34
2023-02-06T11:41:17.025Z,104125.56
2023-02-06T11:46:27.868Z,104115.72
2023-02-06T11:51:51.699Z,104095.06
2023-02-06T11:56:59.474Z,104082.84
2023-02-06T12:02:06.124Z,104066.53
2023-02-06T12:07:16.340Z,104060.44
2023-02-06T12:12:17.915Z,104058.94
2023-02-06T12:17:31.662Z,104071.13
2023-02-06T12:22:41.590Z,104063.69
2023-02-06T12:27:44.619Z,104053.69
2023-02-06T12:32:51.047Z,104058.50
2023-02-06T12:38:00.262Z,104050.59
2023-02-06T12:43:11.654Z,104045.53
2023-02-06T12:48:22.226Z,104041.22
2023-02-06T12:53:29.805Z,104040.44
2023-02-06T12:58:43.630Z,104035.53
2023-02-06T13:03:51.094Z,104028.75
2023-02-06T13:09:06.408Z,104024.81
2023-02-06T13:14:13.707Z,104013.53
2023-02-06T13:19:41.123Z,104011.06
2023-02-06T13:24:48.641Z,104010.41
2023-02-06T13:29:56.436Z,104006.63
2023-02-06T13:35:03.930Z,103987.13
2023-02-06T13:40:24.074Z,103982.66
2023-02-06T13:45:34.075Z,103988.03
2023-02-06T13:50:49.820Z,103986.84
2023-02-06T13:56:03.973Z,103988.75
2023-02-06T14:01:13.181Z,103988.44
2023-02-06T14:06:39.972Z,103984.38
2023-02-06T14:12:19.146Z,104000.13
2023-02-06T14:18:16.735Z,103991.47
2023-02-06T14:23:21.166Z,103993.25
2023-02-06T14:28:47.054Z,103989.50
2023-02-06T14:34:09.705Z,103973.41
2023-02-06T14:39:30.189Z,103975.00
2023-02-06T14:44:31.999Z,103976.59
2023-02-06T14:49:36.229Z,103971.53
2023-02-06T14:54:38.762Z,103980.41
2023-02-06T14:59:55.146Z,103985.16
2023-02-06T15:04:58.253Z,103979.63
2023-02-06T15:10:26.590Z,103982.94
2023-02-06T15:15:32.051Z,104001.66
2023-02-06T15:20:40.342Z,104014.28
2023-02-06T15:25:47.987Z,104003.16
2023-02-06T15:30:54.527Z,104018.53
2023-02-06T15:35:58.908Z,104028.28
2023-02-06T15:41:06.967Z,104016.94
2023-02-06T15:46:08.723Z,104005.72
2023-02-06T15:51:29.970Z,104003.59
2023-02-06T15:56:39.910Z,104002.25
2023-02-06T16:01:43.125Z,104001.41
2023-02-06T16:06:46.773Z,104005.56
2023-02-06T16:11:52.684Z,103998.38
2023-02-06T16:17:01.326Z,104000.13
2023-02-06T16:22:17.493Z,103988.63
2023-02-06T16:27:23.255Z,104005.91
2023-02-06T16:32:29.685Z,103999.50
2023-02-06T16:37:32.028Z,104013.28
2023-02-06T16:42:36.847Z,104014.88
2023-02-06T16:47:38.533Z,104010.44
2023-02-06T16:52:46.093Z,104025.59
2023-02-06T16:57:49.882Z,104019.31
2023-02-06T17:02:53.735Z,104015.31
2023-02-06T17:07:55.645Z,104007.34
2023-02-06T17:12:57.711Z,104017.28
2023-02-06T17:17:59.342Z,103997.91
2023-02-06T17:23:01.197Z,104005.00
2023-02-06T17:28:03.536Z,104015.81
2023-02-06T17:33:06.651Z,104001.13
2023-02-06T17:38:09.343Z,104000.56
2023-02-06T17:43:13.783Z,103997.09
2023-02-06T17:48:15.504Z,104006.13
2023-02-06T17:53:17.868Z,103986.88
2023-02-06T17:58:19.575Z,104001.47
2023-02-06T18:03:21.410Z,104004.28
2023-02-06T18:08:24.442Z,103988.16
2023-02-06T18:13:27.971Z,103980.19
2023-02-06T18:18:31.297Z,103978.72
2023-02-06T18:23:33.159Z,103972.44
2023-02-06T18:28:38.452Z,103973.44
2023-02-06T18:33:40.508Z,103981.31
2023-02-06T18:38:42.680Z,103970.53
2023-02-06T18:43:44.295Z,103973.19
2023-02-06T18:48:45.986Z,103973.03
2023-02-06T18:53:48.046Z,103970.28
2023-02-06T18:58:49.884Z,103965.31
2023-02-06T19:03:52.640Z,103965.78
2023-02-06T19:08:54.527Z,103969.25
2023-02-06T19:13:56.247Z,103956.50
2023-02-06T19:18:57.845Z,103968.50
2023-02-06T19:24:00.389Z,103954.34
2023-02-06T19:29:02.059Z,103958.25
2023-02-06T19:34:03.870Z,103952.97
2023-02-06T19:39:09.236Z,103948.44
2023-02-06T19:44:15.990Z,103941.91
2023-02-06T19:49:17.619Z,103939.75
2023-02-06T19:54:19.333Z,103937.81
2023-02-06T19:59:23.936Z,103930.22
2023-02-06T20:04:32.279Z,103915.88
2023-02-06T20:09:34.046Z,103918.72
2023-02-06T20:14:35.961Z,103910.81
2023-02-06T20:19:37.616Z,103904.44
2023-02-06T20:24:39.239Z,103910.22
2023-02-06T20:29:43.082Z,103905.66
2023-02-06T20:34:46.208Z,103911.63
2023-02-06T20:39:49.178Z,103910.53
2023-02-06T20:44:52.291Z,103916.09
2023-02-06T20:49:54.031Z,103916.25
2023-02-06T20:54:55.988Z,103918.91
2023-02-06T20:59:57.602Z,103922.38
2023-02-06T21:05:00.610Z,103921.34
2023-02-06T21:10:04.410Z,103918.84
2023-02-06T21:15:06.668Z,103934.09
2023-02-06T21:20:09.754Z,103926.88
2023-02-06T21:25:11.423Z,103937.25
2023-02-06T21:30:13.782Z,103930.91
2023-02-06T21:35:15.554Z,103927.25
2023-02-06T21:40:17.382Z,103932.06
2023-02-06T21:45:19.323Z,103915.16
2023-02-06T21:50:21.395Z,103926.16
2023-02-06T21:55:23.823Z,103918.81
2023-02-06T22:00:25.614Z,103912.78
2023-02-06T22:05:28.633Z,103926.16
2023-02-06T22:10:30.680Z,103921.66
2023-02-06T22:15:33.744Z,103920.72
2023-02-06T22:26:03.599Z,103918.16
2023-02-06T22:31:17.049Z,103913.75
2023-02-06T22:36:21.561Z,103918.28
2023-02-06T22:41:23.770Z,103922.41
2023-02-06T22:46:40.589Z,103918.59
2023-02-06T22:51:49.546Z,103922.81
2023-02-06T22:56:51.988Z,103922.00
2023-02-06T23:01:58.028Z,103925.28
2023-02-06T23:06:59.900Z,103925.81
2023-02-06T23:12:02.705Z,103929.84
2023-02-06T23:17:04.411Z,103943.50
2023-02-06T23:22:07.754Z,103947.94
2023-02-06T23:27:09.457Z,103944.84
2023-02-06T23:32:11.119Z,103959.25
2023-02-06T23:37:12.682Z,103952.00
2023-02-06T23:42:28.919Z,103947.69
2023-02-06T23:47:30.745Z,103948.75
2023-02-06T23:52:32.422Z,103941.88
2023-02-06T23:57:39.021Z,103931.47
